createdAt,value
2023-06-30T00:01:34.479Z,1.60
2023-06-30T00:04:03.376Z,1.40
2023-06-30T00:06:30.911Z,1.42
2023-06-30T00:08:57.872Z,1.25
2023-06-30T00:11:25.211Z,1.60
2023-06-30T00:13:56.616Z,1.38
2023-06-30T00:16:23.715Z,1.38
2023-06-30T00:18:50.705Z,1.23
2023-06-30T00:21:18.697Z,1.60
2023-06-30T00:23:45.661Z,1.48
2023-06-30T00:26:12.589Z,2.17
2023-06-30T00:28:39.453Z,2.50
2023-06-30T00:31:06.584Z,1.80
2023-06-30T00:33:33.530Z,2.25
2023-06-30T00:36:00.453Z,2.13
2023-06-30T00:38:28.738Z,2.38
2023-06-30T00:40:55.777Z,2.45
2023-06-30T00:43:22.671Z,2.17
2023-06-30T00:45:49.572Z,2.35
2023-06-30T00:48:18.534Z,2.35
2023-06-30T00:50:45.657Z,2.70
2023-06-30T00:53:14.146Z,2.55
2023-06-30T00:55:45.988Z,2.70
2023-06-30T00:58:13.148Z,2.40
2023-06-30T01:00:40.293Z,2.83
2023-06-30T01:03:26.769Z,2.63
2023-06-30T01:05:58.626Z,2.45
2023-06-30T01:08:57.647Z,2.20
2023-06-30T01:11:25.502Z,2.55
2023-06-30T01:13:52.504Z,2.38
2023-06-30T01:16:20.587Z,1.80
2023-06-30T01:18:47.530Z,2.30
2023-06-30T01:21:17.388Z,2.10
2023-06-30T01:23:48.413Z,2.38
2023-06-30T01:26:17.009Z,1.75
2023-06-30T01:28:44.047Z,1.55
2023-06-30T01:31:11.488Z,1.30
2023-06-30T01:33:41.592Z,1.65
2023-06-30T01:36:09.243Z,1.60
2023-06-30T01:38:36.615Z,2.70
2023-06-30T01:41:06.207Z,1.58
2023-06-30T01:43:33.276Z,1.70
2023-06-30T01:46:00.271Z,2.00
2023-06-30T01:48:27.143Z,1.40
2023-06-30T01:50:54.777Z,1.58
2023-06-30T01:53:22.840Z,2.15
2023-06-30T01:55:49.855Z,1.48
2023-06-30T01:58:18.097Z,1.67
2023-06-30T02:00:44.960Z,1.40
2023-06-30T02:03:12.041Z,1.15
2023-06-30T02:05:38.943Z,1.42
2023-06-30T02:08:05.855Z,1.42
2023-06-30T02:10:32.832Z,1.33
2023-06-30T02:12:59.779Z,1.42
2023-06-30T02:15:26.817Z,1.40
2023-06-30T02:17:54.949Z,1.70
2023-06-30T02:20:21.844Z,1.38
2023-06-30T02:22:49.566Z,1.30
2023-06-30T02:25:19.522Z,1.45
2023-06-30T02:27:47.110Z,1.25
2023-06-30T02:30:18.893Z,1.30
2023-06-30T02:32:46.276Z,1.60
2023-06-30T02:35:14.208Z,1.40
2023-06-30T02:37:41.150Z,1.30
2023-06-30T02:40:09.749Z,1.17
2023-06-30T02:42:36.694Z,1.30
2023-06-30T02:45:06.061Z,1.25
2023-06-30T02:47:33.067Z,1.35
2023-06-30T02:50:00.265Z,1.75
2023-06-30T02:52:28.559Z,1.10
2023-06-30T02:54:56.615Z,1.33
2023-06-30T02:57:23.827Z,1.10
2023-06-30T02:59:51.429Z,1.00
2023-06-30T03:02:18.561Z,1.00
2023-06-30T03:04:45.633Z,1.55
2023-06-30T03:07:14.429Z,0.90
2023-06-30T03:09:43.570Z,1.05
2023-06-30T03:12:11.116Z,0.80
2023-06-30T03:14:38.051Z,1.20
2023-06-30T03:17:05.983Z,1.10
2023-06-30T03:19:33.013Z,0.82
2023-06-30T03:22:00.069Z,1.08
2023-06-30T03:24:27.398Z,1.35
2023-06-30T03:26:54.388Z,0.82
2023-06-30T03:29:25.028Z,0.82
2023-06-30T03:31:53.967Z,0.80
2023-06-30T03:34:20.910Z,0.80
2023-06-30T03:36:50.461Z,0.90
2023-06-30T03:39:19.089Z,1.00
2023-06-30T03:41:46.721Z,0.70
2023-06-30T03:44:15.242Z,0.63
2023-06-30T03:46:42.308Z,0.50
2023-06-30T03:49:09.224Z,0.50
2023-06-30T03:51:38.877Z,0.88
2023-06-30T03:54:07.487Z,0.57
2023-06-30T03:56:35.244Z,0.50
2023-06-30T03:59:02.184Z,0.65
2023-06-30T04:01:29.713Z,0.57
2023-06-30T04:03:56.731Z,0.90
2023-06-30T04:06:23.769Z,0.95
2023-06-30T04:08:50.900Z,0.65
2023-06-30T04:11:17.840Z,0.68
2023-06-30T04:13:44.725Z,0.70
2023-06-30T04:16:11.845Z,0.70
2023-06-30T04:18:39.356Z,0.85
2023-06-30T04:21:06.244Z,0.70
2023-06-30T04:23:33.141Z,0.70
2023-06-30T04:26:01.793Z,0.70
2023-06-30T04:28:28.695Z,0.65
2023-06-30T04:30:55.612Z,0.80
2023-06-30T04:33:22.458Z,0.77
2023-06-30T04:35:49.621Z,0.70
2023-06-30T04:38:16.995Z,0.80
2023-06-30T04:40:44.007Z,0.60
2023-06-30T04:43:13.761Z,0.80
2023-06-30T04:45:40.963Z,0.85
2023-06-30T04:48:08.847Z,1.55
2023-06-30T04:50:36.600Z,0.88
2023-06-30T04:53:03.785Z,0.65
2023-06-30T04:55:31.340Z,0.98
2023-06-30T04:57:58.329Z,0.50
2023-06-30T05:00:26.268Z,0.57
2023-06-30T05:02:53.458Z,0.80
2023-06-30T05:05:20.541Z,0.70
2023-06-30T05:07:47.933Z,1.63
2023-06-30T05:10:14.984Z,0.90
2023-06-30T05:12:41.895Z,1.00
2023-06-30T05:15:09.891Z,0.90
2023-06-30T05:17:37.043Z,1.30
2023-06-30T05:20:11.434Z,1.08
2023-06-30T05:22:38.453Z,0.88
2023-06-30T05:25:05.814Z,0.85
2023-06-30T05:27:32.838Z,0.85
2023-06-30T05:29:59.831Z,0.90
2023-06-30T05:32:26.737Z,0.90
2023-06-30T05:34:53.756Z,0.93
2023-06-30T05:37:20.772Z,1.08
2023-06-30T05:39:47.743Z,1.50
2023-06-30T05:42:14.698Z,0.63
2023-06-30T05:44:41.701Z,0.75
2023-06-30T05:47:08.716Z,0.70
2023-06-30T05:49:40.083Z,0.60
2023-06-30T05:52:08.448Z,0.95
2023-06-30T05:54:35.474Z,0.45
2023-06-30T05:57:02.362Z,1.00
2023-06-30T05:59:31.541Z,0.50
2023-06-30T06:01:58.653Z,0.63
2023-06-30T06:04:25.992Z,0.57
2023-06-30T06:06:53.068Z,0.70
2023-06-30T06:09:20.025Z,0.93
2023-06-30T06:11:46.863Z,0.55
2023-06-30T06:14:13.971Z,0.50
2023-06-30T06:16:41.019Z,0.60
2023-06-30T06:19:07.868Z,0.50
2023-06-30T06:21:36.398Z,0.50
2023-06-30T06:24:03.886Z,0.30
2023-06-30T06:26:31.076Z,0.40
2023-06-30T06:28:58.019Z,0.40
2023-06-30T06:31:26.041Z,0.50
2023-06-30T06:33:55.075Z,0.50
2023-06-30T06:36:22.911Z,0.60
2023-06-30T06:38:49.845Z,0.70
2023-06-30T06:41:16.784Z,0.60
2023-06-30T06:43:43.762Z,0.50
2023-06-30T06:46:10.647Z,0.60
2023-06-30T06:48:37.998Z,0.60
2023-06-30T06:51:06.184Z,0.50
2023-06-30T06:53:34.480Z,0.57
2023-06-30T06:56:03.689Z,0.60
2023-06-30T06:58:32.521Z,0.60
2023-06-30T07:00:59.678Z,0.50
2023-06-30T07:03:26.637Z,0.40
2023-06-30T07:05:53.789Z,0.90
2023-06-30T07:08:20.693Z,0.50
2023-06-30T07:10:47.884Z,1.33
2023-06-30T07:13:21.167Z,0.70
2023-06-30T07:15:51.850Z,0.90
2023-06-30T07:18:19.683Z,0.50
2023-06-30T07:20:50.214Z,0.95
2023-06-30T07:23:17.605Z,0.50
2023-06-30T07:25:46.954Z,0.50
2023-06-30T07:28:14.224Z,0.60
2023-06-30T07:30:43.749Z,0.40
2023-06-30T07:33:13.095Z,0.52
2023-06-30T07:35:40.116Z,0.50
2023-06-30T07:38:07.300Z,0.50
2023-06-30T07:40:50.593Z,0.50
2023-06-30T07:43:21.222Z,0.60
2023-06-30T07:45:48.401Z,0.40
2023-06-30T07:48:15.833Z,0.57
2023-06-30T07:50:50.773Z,0.57
2023-06-30T07:53:23.149Z,0.50
2023-06-30T07:55:50.255Z,0.50
2023-06-30T07:58:17.196Z,0.50
2023-06-30T08:00:44.028Z,0.60
2023-06-30T08:03:11.228Z,0.40
2023-06-30T08:05:38.653Z,0.75
2023-06-30T08:08:05.686Z,0.32
2023-06-30T08:10:33.064Z,0.50
2023-06-30T08:12:59.994Z,0.50
2023-06-30T08:15:27.239Z,0.40
2023-06-30T08:17:57.423Z,0.40
2023-06-30T08:20:26.573Z,0.40
2023-06-30T08:22:54.866Z,0.40
2023-06-30T08:25:23.802Z,0.57
2023-06-30T08:27:51.315Z,0.52
2023-06-30T08:30:20.921Z,0.30
2023-06-30T08:32:49.897Z,0.55
2023-06-30T08:35:17.639Z,0.60
2023-06-30T08:37:44.835Z,0.40
2023-06-30T08:40:12.284Z,0.88
2023-06-30T08:42:41.289Z,0.40
2023-06-30T08:45:09.425Z,0.50
2023-06-30T08:47:36.526Z,0.63
2023-06-30T08:50:03.751Z,0.60
2023-06-30T08:52:34.828Z,0.47
2023-06-30T08:55:03.849Z,0.50
2023-06-30T08:57:31.180Z,0.50
2023-06-30T08:59:58.107Z,0.43
2023-06-30T09:02:25.229Z,0.50
2023-06-30T09:04:52.317Z,0.82
2023-06-30T09:07:26.399Z,0.80
2023-06-30T09:09:58.243Z,0.80
2023-06-30T09:12:25.595Z,1.33
2023-06-30T09:14:53.082Z,0.63
2023-06-30T09:17:20.035Z,1.30
2023-06-30T09:19:47.157Z,0.40
2023-06-30T09:22:53.431Z,0.50
2023-06-30T09:25:01.112Z,0.68
2023-06-30T09:27:29.084Z,0.70
2023-06-30T09:29:56.389Z,0.50
2023-06-30T09:32:30.799Z,0.70
2023-06-30T09:34:58.263Z,0.60
2023-06-30T09:37:25.965Z,0.90
2023-06-30T09:39:52.970Z,0.50
2023-06-30T09:42:20.343Z,0.50
2023-06-30T09:44:47.432Z,0.70
2023-06-30T09:47:14.859Z,0.60
2023-06-30T09:49:44.016Z,0.93
2023-06-30T09:52:15.534Z,0.63
2023-06-30T09:54:44.981Z,0.93
2023-06-30T09:57:12.547Z,0.60
2023-06-30T09:59:40.030Z,1.67
2023-06-30T10:02:07.630Z,0.70
2023-06-30T10:04:37.339Z,0.90
2023-06-30T10:07:05.698Z,0.60
2023-06-30T10:09:33.023Z,0.68
2023-06-30T10:12:00.262Z,0.80
2023-06-30T10:14:29.206Z,0.88
2023-06-30T10:16:57.677Z,0.70
2023-06-30T10:19:25.506Z,1.00
2023-06-30T10:21:53.517Z,0.90
2023-06-30T10:24:24.852Z,0.70
2023-06-30T10:26:52.097Z,1.85
2023-06-30T10:29:21.220Z,1.05
2023-06-30T10:31:48.458Z,0.75
2023-06-30T10:34:15.752Z,0.93
2023-06-30T10:36:43.131Z,1.02
2023-06-30T10:39:11.353Z,0.70
2023-06-30T10:41:51.196Z,1.00
2023-06-30T10:44:21.778Z,1.15
2023-06-30T10:46:49.444Z,1.15
2023-06-30T10:49:36.298Z,0.90
2023-06-30T10:52:06.818Z,0.93
2023-06-30T10:54:48.514Z,0.75
2023-06-30T10:57:36.892Z,1.20
2023-06-30T11:00:05.328Z,1.17
2023-06-30T11:02:33.154Z,1.27
2023-06-30T11:05:22.425Z,1.00
2023-06-30T11:08:25.066Z,1.52
2023-06-30T11:10:52.260Z,1.25
2023-06-30T11:13:36.344Z,1.20
2023-06-30T11:16:04.024Z,1.40
2023-06-30T11:18:31.965Z,1.55
2023-06-30T11:21:06.051Z,1.40
2023-06-30T11:23:39.927Z,1.33
2023-06-30T11:26:19.552Z,1.10
2023-06-30T11:28:50.766Z,1.85
2023-06-30T11:31:18.454Z,1.20
2023-06-30T11:33:45.968Z,1.23
2023-06-30T11:36:13.794Z,1.05
2023-06-30T11:38:51.276Z,1.95
2023-06-30T11:41:24.612Z,1.10
2023-06-30T11:43:52.302Z,1.33
2023-06-30T11:46:19.298Z,1.08
2023-06-30T11:48:46.240Z,1.17
2023-06-30T11:51:13.263Z,1.13
2023-06-30T11:53:44.133Z,1.15
2023-06-30T11:56:10.998Z,1.10
2023-06-30T11:58:37.955Z,1.00
2023-06-30T12:01:05.314Z,1.27
2023-06-30T12:03:35.699Z,1.40
2023-06-30T12:06:03.021Z,1.50
2023-06-30T12:08:32.118Z,1.33
2023-06-30T12:10:59.064Z,1.52
2023-06-30T12:13:29.184Z,1.30
2023-06-30T12:15:59.684Z,1.30
2023-06-30T12:18:46.024Z,0.73
2023-06-30T12:21:14.358Z,1.20
2023-06-30T12:23:44.994Z,0.90
2023-06-30T12:26:12.671Z,1.00
2023-06-30T12:28:39.681Z,1.25
2023-06-30T12:31:06.655Z,1.35
2023-06-30T12:33:33.606Z,1.25
2023-06-30T12:36:02.609Z,1.17
2023-06-30T12:38:29.574Z,1.08
2023-06-30T12:40:56.441Z,1.45
2023-06-30T12:43:24.527Z,1.30
2023-06-30T12:45:53.297Z,1.35
2023-06-30T12:48:20.588Z,1.73
2023-06-30T12:50:47.630Z,1.48
2023-06-30T12:53:14.680Z,1.00
2023-06-30T12:55:41.566Z,1.08
2023-06-30T12:58:09.162Z,1.02
2023-06-30T13:00:36.032Z,1.42
2023-06-30T13:03:03.252Z,1.00
2023-06-30T13:05:30.286Z,0.95
2023-06-30T13:07:59.581Z,1.73
2023-06-30T13:10:27.248Z,1.20
2023-06-30T13:12:57.691Z,1.40
2023-06-30T13:15:26.415Z,1.38
2023-06-30T13:17:53.322Z,1.17
2023-06-30T13:20:20.186Z,0.90
2023-06-30T13:23:02.263Z,1.10
2023-06-30T13:25:33.927Z,1.10
2023-06-30T13:28:01.052Z,0.85
2023-06-30T13:30:28.720Z,0.90
2023-06-30T13:32:55.846Z,2.03
2023-06-30T13:35:23.031Z,1.65
2023-06-30T13:37:51.301Z,1.10
2023-06-30T13:40:18.221Z,0.95
2023-06-30T13:42:45.152Z,1.30
2023-06-30T13:45:14.713Z,1.38
2023-06-30T13:47:42.037Z,1.50
2023-06-30T13:50:09.270Z,1.50
2023-06-30T13:52:36.267Z,1.85
2023-06-30T13:55:03.305Z,1.58
2023-06-30T13:57:30.214Z,1.60
2023-06-30T13:59:57.073Z,1.60
2023-06-30T14:02:23.921Z,2.53
2023-06-30T14:04:51.225Z,1.55
2023-06-30T14:07:18.271Z,1.75
2023-06-30T14:09:45.381Z,2.00
2023-06-30T14:12:12.296Z,1.38
2023-06-30T14:14:39.353Z,1.70
2023-06-30T14:17:06.874Z,1.25
2023-06-30T14:19:34.817Z,1.92
2023-06-30T14:22:02.997Z,1.42
2023-06-30T14:24:30.028Z,1.00
2023-06-30T14:26:56.949Z,0.90
2023-06-30T14:29:23.859Z,1.15
2023-06-30T14:31:50.889Z,0.77
2023-06-30T14:34:17.790Z,1.08
2023-06-30T14:36:44.908Z,1.48
2023-06-30T14:39:11.928Z,0.93
2023-06-30T14:41:44.310Z,0.90
2023-06-30T14:44:17.301Z,1.27
2023-06-30T14:46:44.532Z,0.80
2023-06-30T14:49:11.463Z,0.80
2023-06-30T14:51:38.440Z,0.90
2023-06-30T14:54:05.459Z,0.90
2023-06-30T14:56:32.443Z,0.70
2023-06-30T14:58:59.437Z,1.10
2023-06-30T15:01:26.558Z,1.05
2023-06-30T15:03:53.614Z,1.92
2023-06-30T15:06:20.668Z,1.42
2023-06-30T15:08:47.611Z,1.70
2023-06-30T15:11:14.498Z,1.90
2023-06-30T15:13:41.376Z,2.22
2023-06-30T15:16:08.394Z,2.22
2023-06-30T15:18:35.342Z,2.15
2023-06-30T15:21:02.244Z,1.65
2023-06-30T15:23:29.215Z,1.90
2023-06-30T15:25:56.064Z,1.40
2023-06-30T15:28:23.101Z,1.40
2023-06-30T15:30:49.977Z,1.70
2023-06-30T15:33:17.202Z,1.50
2023-06-30T15:35:44.874Z,1.20
2023-06-30T15:38:12.097Z,1.88
2023-06-30T15:40:40.860Z,1.67
2023-06-30T15:43:07.766Z,1.77
2023-06-30T15:45:34.668Z,1.30
2023-06-30T15:48:01.981Z,1.10
2023-06-30T15:50:28.974Z,1.50
2023-06-30T15:52:55.820Z,1.20
2023-06-30T15:55:22.748Z,1.00
2023-06-30T15:57:50.280Z,1.67
2023-06-30T16:00:17.734Z,1.00
2023-06-30T16:02:44.803Z,1.33
2023-06-30T16:05:11.835Z,1.48
2023-06-30T16:07:39.059Z,1.38
2023-06-30T16:10:06.779Z,1.30
2023-06-30T16:12:33.787Z,1.20
2023-06-30T16:15:01.797Z,1.20
2023-06-30T16:17:29.399Z,1.10
2023-06-30T16:19:57.279Z,1.20
2023-06-30T16:23:15.523Z,0.90
2023-06-30T16:25:42.415Z,0.98
2023-06-30T16:28:09.371Z,1.25
2023-06-30T16:30:37.546Z,1.52
2023-06-30T16:33:04.594Z,1.60
2023-06-30T16:35:32.310Z,1.48
2023-06-30T16:37:59.454Z,1.33
2023-06-30T16:40:26.516Z,1.77
2023-06-30T16:42:54.101Z,1.55
2023-06-30T16:45:23.528Z,2.00
2023-06-30T16:47:50.606Z,1.35
2023-06-30T16:50:19.236Z,1.70
2023-06-30T16:52:46.347Z,1.92
2023-06-30T16:55:13.322Z,2.47
2023-06-30T16:57:40.332Z,2.50
2023-06-30T17:00:09.515Z,1.58
2023-06-30T17:02:37.092Z,2.03
2023-06-30T17:05:04.893Z,2.25
2023-06-30T17:07:31.966Z,1.80
2023-06-30T17:09:59.062Z,1.92
2023-06-30T17:12:25.950Z,1.90
2023-06-30T17:14:52.974Z,1.65
2023-06-30T17:17:20.371Z,2.10
2023-06-30T17:19:48.630Z,1.67
2023-06-30T17:22:15.807Z,2.25
2023-06-30T17:24:42.756Z,1.85
2023-06-30T17:27:11.100Z,2.10
2023-06-30T17:29:38.789Z,2.40
2023-06-30T17:32:06.452Z,2.15
2023-06-30T17:34:33.485Z,1.70
2023-06-30T17:37:02.295Z,1.90
2023-06-30T17:39:29.375Z,2.08
2023-06-30T17:41:56.388Z,1.90
2023-06-30T17:44:24.449Z,2.42
2023-06-30T17:46:52.540Z,1.70
2023-06-30T17:49:24.779Z,2.45
2023-06-30T17:51:52.104Z,1.73
2023-06-30T17:54:21.777Z,2.00
2023-06-30T17:56:49.220Z,2.53
2023-06-30T17:59:16.609Z,2.42
2023-06-30T18:01:44.615Z,2.78
2023-06-30T18:04:11.930Z,2.28
2023-06-30T18:07:03.620Z,2.13
2023-06-30T18:09:32.496Z,2.70
2023-06-30T18:12:00.231Z,2.92
2023-06-30T18:14:30.085Z,2.42
2023-06-30T18:16:57.176Z,2.50
2023-06-30T18:19:24.398Z,2.30
2023-06-30T18:21:51.829Z,2.10
2023-06-30T18:24:19.190Z,2.20
2023-06-30T18:26:48.051Z,2.90
2023-06-30T18:29:24.869Z,2.42
2023-06-30T18:31:52.454Z,2.03
2023-06-30T18:34:22.821Z,1.98
2023-06-30T18:36:55.645Z,2.53
2023-06-30T18:39:22.916Z,2.58
2023-06-30T18:41:49.980Z,2.90
2023-06-30T18:44:16.911Z,2.00
2023-06-30T18:46:44.092Z,2.50
2023-06-30T18:49:12.806Z,2.03
2023-06-30T18:51:40.455Z,1.73
2023-06-30T18:54:07.352Z,1.52
2023-06-30T18:56:34.247Z,1.55
2023-06-30T18:59:01.887Z,1.98
2023-06-30T19:01:29.265Z,1.80
2023-06-30T19:03:56.895Z,1.75
2023-06-30T19:06:48.643Z,2.03
2023-06-30T19:09:15.831Z,1.52
2023-06-30T19:11:42.773Z,1.48
2023-06-30T19:14:09.965Z,1.52
2023-06-30T19:16:36.995Z,2.03
2023-06-30T19:19:03.981Z,1.70
2023-06-30T19:21:31.274Z,1.73
2023-06-30T19:24:01.115Z,1.58
2023-06-30T19:26:28.165Z,2.42
2023-06-30T19:28:55.078Z,1.70
2023-06-30T19:31:22.086Z,1.50
2023-06-30T19:33:50.423Z,2.67
2023-06-30T19:36:17.352Z,1.70
2023-06-30T19:38:44.578Z,1.83
2023-06-30T19:41:13.402Z,1.80
2023-06-30T19:43:40.680Z,1.77
2023-06-30T19:46:08.065Z,2.20
2023-06-30T19:48:36.245Z,1.95
2023-06-30T19:51:03.731Z,2.00
2023-06-30T19:53:31.267Z,2.00
2023-06-30T19:55:58.304Z,2.90
2023-06-30T19:58:25.678Z,1.85
2023-06-30T20:00:52.733Z,2.30
2023-06-30T20:03:19.969Z,2.17
2023-06-30T20:05:47.153Z,1.75
2023-06-30T20:08:14.199Z,1.60
2023-06-30T20:10:41.317Z,2.25
2023-06-30T20:13:08.319Z,1.70
2023-06-30T20:15:35.371Z,1.80
2023-06-30T20:18:02.269Z,2.08
2023-06-30T20:20:29.310Z,1.73
2023-06-30T20:22:56.374Z,2.20
2023-06-30T20:25:24.612Z,1.90
2023-06-30T20:27:51.966Z,1.70
2023-06-30T20:30:19.044Z,1.90
2023-06-30T20:32:46.158Z,1.90
2023-06-30T20:35:14.832Z,1.70
2023-06-30T20:37:41.947Z,1.80
2023-06-30T20:40:09.489Z,1.80
2023-06-30T20:42:36.438Z,1.92
2023-06-30T20:45:03.738Z,2.00
2023-06-30T20:47:31.323Z,1.83
2023-06-30T20:49:58.344Z,2.10
2023-06-30T20:52:25.292Z,2.00
2023-06-30T20:54:52.468Z,1.92
2023-06-30T20:57:19.310Z,1.90
2023-06-30T20:59:46.267Z,2.05
2023-06-30T21:02:13.271Z,2.00
2023-06-30T21:04:40.260Z,1.83
2023-06-30T21:07:07.219Z,2.53
2023-06-30T21:09:34.093Z,1.80
2023-06-30T21:12:01.459Z,2.85
2023-06-30T21:14:28.493Z,1.75
2023-06-30T21:16:55.432Z,1.80
2023-06-30T21:19:23.496Z,2.10
2023-06-30T21:21:50.596Z,2.00
2023-06-30T21:24:17.709Z,2.42
2023-06-30T21:26:45.257Z,2.17
2023-06-30T21:29:12.521Z,1.98
2023-06-30T21:31:39.638Z,1.73
2023-06-30T21:34:06.812Z,2.22
2023-06-30T21:36:35.656Z,1.52
2023-06-30T21:39:04.451Z,1.50
2023-06-30T21:41:31.490Z,2.10
2023-06-30T21:43:58.411Z,1.67
2023-06-30T21:46:25.507Z,1.65
2023-06-30T21:48:53.569Z,1.58
2023-06-30T21:51:20.516Z,1.30
2023-06-30T21:53:47.956Z,1.45
2023-06-30T21:59:09.754Z,1.30
2023-06-30T22:02:14.800Z,2.03
2023-06-30T22:04:46.846Z,0.93
2023-06-30T22:07:59.770Z,1.05
2023-06-30T22:10:26.681Z,1.30
2023-06-30T22:12:53.563Z,0.85
2023-06-30T22:15:23.067Z,1.10
2023-06-30T22:17:53.050Z,0.68
2023-06-30T22:20:20.489Z,0.80
2023-06-30T22:22:48.822Z,0.90
2023-06-30T22:25:15.778Z,0.93
2023-06-30T22:27:43.129Z,0.98
2023-06-30T22:30:11.198Z,0.98
2023-06-30T22:32:38.353Z,0.90
2023-06-30T22:35:05.939Z,0.75
2023-06-30T22:37:35.368Z,0.85
2023-06-30T22:40:02.660Z,1.00
2023-06-30T22:42:29.586Z,1.30
2023-06-30T22:44:56.548Z,0.68
2023-06-30T22:47:24.742Z,1.02
2023-06-30T22:49:53.109Z,0.80
2023-06-30T22:52:20.154Z,0.75
2023-06-30T22:54:47.320Z,0.60
2023-06-30T22:57:14.652Z,0.70
2023-06-30T22:59:43.025Z,0.60
2023-06-30T23:02:09.968Z,0.63
2023-06-30T23:04:37.057Z,1.13
2023-06-30T23:07:04.332Z,0.88
2023-06-30T23:09:31.291Z,0.45
2023-06-30T23:11:58.569Z,0.60
2023-06-30T23:14:25.506Z,0.60
2023-06-30T23:16:52.700Z,0.55
2023-06-30T23:19:19.735Z,0.90
2023-06-30T23:21:46.744Z,0.70
2023-06-30T23:24:16.752Z,0.50
2023-06-30T23:26:48.725Z,0.50
2023-06-30T23:29:15.673Z,0.60
2023-06-30T23:31:42.596Z,0.40
2023-06-30T23:34:09.578Z,0.60
2023-06-30T23:36:36.521Z,0.70
2023-06-30T23:39:04.189Z,0.60
2023-06-30T23:41:31.233Z,0.50
2023-06-30T23:43:59.107Z,0.63
2023-06-30T23:46:26.078Z,0.60
2023-06-30T23:48:53.261Z,0.90
2023-06-30T23:51:20.136Z,0.70
2023-06-30T23:53:47.026Z,0.60
2023-06-30T23:56:14.057Z,0.60
2023-06-30T23:58:40.939Z,0.70
